<?xml version="1.0" encoding="UTF-8" standalone="no" ?>
<gpx xmlns="http://www.topografix.com/GPX/1/1" xmlns:xsi="http://www.w3.org/2001/XMLSchema-instance" xsi:schemaLocation="http://www.topografix.com/GPX/1/1 http://www.topografix.com/GPX/1/1/gpx.xsd" version="1.1" creator="VisuGPX - https://www.visugpx.com">
  <metadata>
    <name>Via Rhôna 2018</name>
    <desc><![CDATA[Ma ViaRhôna depuis Annecy jusqu'à la plage de Piémanson en 4 jours.
11/12/13/14 Mai 2018]]></desc>
  </metadata>
  <wpt lat="45.89897" lon="6.12964">
    <ele>452</ele>
    <name><![CDATA[Annecy]]></name>
  </wpt>
  <wpt lat="45.93371" lon="5.83679">
    <ele>255</ele>
    <name><![CDATA[2410 D991]]></name>
  </wpt>
  <wpt lat="43.67945" lon="4.61781">
    <ele>8</ele>
    <name><![CDATA[21-23 Avenue de la Camargue]]></name>
  </wpt>
  <wpt lat="43.34865" lon="4.7838">
    <ele>1</ele>
    <name><![CDATA[Plage de Piemanson]]></name>
  </wpt>
  <trk>
    <name><![CDATA[20180516133043-ZSSil]]></name>
    <trkseg>
      <trkpt lat="45.75518" lon="5.70689">
        <ele>231</ele>
        <time>2013-04-21T12:53:04Z</time>
      </trkpt>
      <trkpt lat="45.75305" lon="5.70439">
        <ele>229</ele>
        <time>2013-04-21T12:54:11Z</time>
      </trkpt>
      <trkpt lat="45.75152" lon="5.70363">
        <ele>232</ele>
        <time>2013-04-21T12:54:42Z</time>
      </trkpt>
      <trkpt lat="45.74953" lon="5.70329">
        <ele>231</ele>
        <time>2013-04-21T12:55:21Z</time>
      </trkpt>
      <trkpt lat="45.74887" lon="5.70208">
        <ele>231</ele>
        <time>2013-04-21T12:55:45Z</time>
      </trkpt>
      <trkpt lat="45.74806" lon="5.70161">
        <ele>232</ele>
        <time>2013-04-21T12:56:02Z</time>
      </trkpt>
      <trkpt lat="45.74606" lon="5.70286">
        <ele>230</ele>
        <time>2013-04-21T12:56:42Z</time>
      </trkpt>
      <trkpt lat="45.74289" lon="5.70252">
        <ele>227</ele>
        <time>2013-04-21T12:57:45Z</time>
      </trkpt>
      <trkpt lat="45.74155" lon="5.70252">
        <ele>229</ele>
        <time>2013-04-21T12:58:16Z</time>
      </trkpt>
      <trkpt lat="45.73928" lon="5.70415">
        <ele>229</ele>
        <time>2013-04-21T12:59:10Z</time>
      </trkpt>
      <trkpt lat="45.73827" lon="5.70386">
        <ele>234</ele>
        <time>2013-04-21T12:59:36Z</time>
      </trkpt>
      <trkpt lat="45.7379" lon="5.70449">
        <ele>231</ele>
        <time>2013-04-21T12:59:57Z</time>
      </trkpt>
      <trkpt lat="45.73758" lon="5.70413">
        <ele>233</ele>
        <time>2013-04-21T13:00:16Z</time>
      </trkpt>
      <trkpt lat="45.73807" lon="5.70335">
        <ele>237</ele>
        <time>2013-04-21T13:00:46Z</time>
      </trkpt>
      <trkpt lat="45.73826" lon="5.70327">
        <ele>243</ele>
      </trkpt>
      <trkpt lat="45.73731" lon="5.70554">
        <ele>235</ele>
      </trkpt>
      <trkpt lat="45.73641" lon="5.70581">
        <ele>245</ele>
      </trkpt>
      <trkpt lat="45.73552" lon="5.70515">
        <ele>251</ele>
      </trkpt>
      <trkpt lat="45.73288" lon="5.70483">
        <ele>246</ele>
      </trkpt>
      <trkpt lat="45.73145" lon="5.70532">
        <ele>237</ele>
        <time>2013-04-21T13:11:49Z</time>
      </trkpt>
      <trkpt lat="45.73023" lon="5.70384">
        <ele>229</ele>
        <time>2013-04-21T13:12:13Z</time>
      </trkpt>
      <trkpt lat="45.72721" lon="5.70342">
        <ele>226</ele>
        <time>2013-04-21T13:13:04Z</time>
      </trkpt>
      <trkpt lat="45.72643" lon="5.70322">
        <ele>225</ele>
        <time>2013-04-21T13:13:19Z</time>
      </trkpt>
      <trkpt lat="45.72619" lon="5.70392">
        <ele>227</ele>
        <time>2013-04-21T13:13:31Z</time>
      </trkpt>
      <trkpt lat="45.72542" lon="5.70407">
        <ele>227</ele>
        <time>2013-04-21T13:13:48Z</time>
      </trkpt>
      <trkpt lat="45.7212" lon="5.70459">
        <ele>226</ele>
        <time>2013-04-21T13:15:17Z</time>
      </trkpt>
      <trkpt lat="45.72103" lon="5.70356">
        <ele>225</ele>
        <time>2013-04-21T13:15:29Z</time>
      </trkpt>
      <trkpt lat="45.72053" lon="5.70364">
        <ele>225</ele>
        <time>2013-04-21T13:15:38Z</time>
      </trkpt>
      <trkpt lat="45.72047" lon="5.70101">
        <ele>223</ele>
        <time>2013-04-21T13:16:10Z</time>
      </trkpt>
      <trkpt lat="45.72016" lon="5.70078">
        <ele>222</ele>
        <time>2013-04-21T13:16:15Z</time>
      </trkpt>
      <trkpt lat="45.71477" lon="5.70075">
        <ele>221</ele>
        <time>2013-04-21T13:17:57Z</time>
      </trkpt>
      <trkpt lat="45.71497" lon="5.70597">
        <ele>224</ele>
        <time>2013-04-21T13:20:55Z</time>
      </trkpt>
      <trkpt lat="45.716" lon="5.70904">
        <ele>224</ele>
        <time>2013-04-21T13:21:40Z</time>
      </trkpt>
      <trkpt lat="45.71587" lon="5.71106">
        <ele>226</ele>
        <time>2013-04-21T13:22:06Z</time>
      </trkpt>
      <trkpt lat="45.71477" lon="5.71357">
        <ele>233</ele>
        <time>2013-04-21T13:22:47Z</time>
      </trkpt>
      <trkpt lat="45.71283" lon="5.71473">
        <ele>243</ele>
        <time>2013-04-21T13:23:55Z</time>
      </trkpt>
      <trkpt lat="45.71127" lon="5.7151">
        <ele>243</ele>
        <time>2013-04-21T13:24:49Z</time>
      </trkpt>
      <trkpt lat="45.71075" lon="5.71832">
        <ele>242</ele>
        <time>2013-04-21T13:25:31Z</time>
      </trkpt>
      <trkpt lat="45.7103" lon="5.71916">
        <ele>241</ele>
        <time>2013-04-21T13:25:39Z</time>
      </trkpt>
      <trkpt lat="45.70924" lon="5.72007">
        <ele>242</ele>
        <time>2013-04-21T13:25:53Z</time>
      </trkpt>
      <trkpt lat="45.70851" lon="5.72129">
        <ele>257</ele>
        <time>2013-04-21T13:26:07Z</time>
      </trkpt>
      <trkpt lat="45.70932" lon="5.72605">
        <ele>263</ele>
        <time>2013-04-21T13:27:12Z</time>
      </trkpt>
      <trkpt lat="45.70856" lon="5.72723">
        <ele>251</ele>
        <time>2013-04-21T13:29:04Z</time>
      </trkpt>
      <trkpt lat="45.7071" lon="5.71981">
        <ele>234</ele>
        <time>2013-04-21T13:30:42Z</time>
      </trkpt>
      <trkpt lat="45.70753" lon="5.71597">
        <ele>224</ele>
        <time>2013-04-21T13:31:31Z</time>
      </trkpt>
      <trkpt lat="45.70911" lon="5.71136">
        <ele>221</ele>
        <time>2013-04-21T13:32:36Z</time>
      </trkpt>
      <trkpt lat="45.70993" lon="5.70692">
        <ele>222</ele>
        <time>2013-04-21T13:33:40Z</time>
      </trkpt>
      <trkpt lat="45.7094" lon="5.7028">
        <ele>224</ele>
        <time>2013-04-21T13:34:39Z</time>
      </trkpt>
      <trkpt lat="45.70811" lon="5.70261">
        <ele>224</ele>
        <time>2013-04-21T13:35:08Z</time>
      </trkpt>
      <trkpt lat="45.70835" lon="5.70035">
        <ele>221</ele>
        <time>2013-04-21T13:35:43Z</time>
      </trkpt>
      <trkpt lat="45.70412" lon="5.70143">
        <ele>222</ele>
        <time>2013-04-21T13:37:12Z</time>
      </trkpt>
      <trkpt lat="45.70292" lon="5.70129">
        <ele>220</ele>
        <time>2013-04-21T13:37:38Z</time>
      </trkpt>
      <trkpt lat="45.70008" lon="5.70325">
        <ele>219</ele>
        <time>2013-04-21T13:38:46Z</time>
      </trkpt>
      <trkpt lat="45.69921" lon="5.70432">
        <ele>219</ele>
        <time>2013-04-21T13:39:09Z</time>
      </trkpt>
      <trkpt lat="45.69857" lon="5.70693">
        <ele>221</ele>
        <time>2013-04-21T13:39:47Z</time>
      </trkpt>
      <trkpt lat="45.69771" lon="5.70821">
        <ele>221</ele>
        <time>2013-04-21T13:40:11Z</time>
      </trkpt>
      <trkpt lat="45.69723" lon="5.70829">
        <ele>222</ele>
        <time>2013-04-21T13:40:20Z</time>
      </trkpt>
      <trkpt lat="45.69687" lon="5.70912">
        <ele>220</ele>
        <time>2013-04-21T13:40:33Z</time>
      </trkpt>
      <trkpt lat="45.69532" lon="5.70998">
        <ele>220</ele>
        <time>2013-04-21T13:41:06Z</time>
      </trkpt>
      <trkpt lat="45.6943" lon="5.70988">
        <ele>220</ele>
        <time>2013-04-21T13:41:27Z</time>
      </trkpt>
      <trkpt lat="45.6936" lon="5.70928">
        <ele>221</ele>
        <time>2013-04-21T13:41:46Z</time>
      </trkpt>
      <trkpt lat="45.693" lon="5.70961">
        <ele>221</ele>
        <time>2013-04-21T13:42:01Z</time>
      </trkpt>
      <trkpt lat="45.69145" lon="5.71075">
        <ele>223</ele>
        <time>2013-04-21T13:42:43Z</time>
      </trkpt>
      <trkpt lat="45.69109" lon="5.7126">
        <ele>232</ele>
        <time>2013-04-21T13:43:20Z</time>
      </trkpt>
      <trkpt lat="45.68756" lon="5.71111">
        <ele>238</ele>
        <time>2013-04-21T13:45:04Z</time>
      </trkpt>
      <trkpt lat="45.6866" lon="5.7106">
        <ele>237</ele>
        <time>2013-04-21T13:45:29Z</time>
      </trkpt>
      <trkpt lat="45.68375" lon="5.70904">
        <ele>221</ele>
        <time>2013-04-21T13:46:34Z</time>
      </trkpt>
      <trkpt lat="45.68134" lon="5.7083">
        <ele>225</ele>
        <time>2013-04-21T13:47:24Z</time>
      </trkpt>
      <trkpt lat="45.6786" lon="5.70647">
        <ele>219</ele>
        <time>2013-04-21T13:48:27Z</time>
      </trkpt>
      <trkpt lat="45.67488" lon="5.70083">
        <ele>215</ele>
        <time>2013-04-21T13:50:26Z</time>
      </trkpt>
      <trkpt lat="45.67403" lon="5.69982">
        <ele>215</ele>
        <time>2013-04-21T13:50:55Z</time>
      </trkpt>
      <trkpt lat="45.67355" lon="5.69999">
        <ele>216</ele>
        <time>2013-04-21T13:51:12Z</time>
      </trkpt>
      <trkpt lat="45.6715" lon="5.69769">
        <ele>217</ele>
        <time>2013-04-21T13:54:19Z</time>
      </trkpt>
      <trkpt lat="45.66982" lon="5.69514">
        <ele>216</ele>
        <time>2013-04-21T13:55:16Z</time>
      </trkpt>
      <trkpt lat="45.66675" lon="5.68927">
        <ele>214</ele>
        <time>2013-04-21T13:57:14Z</time>
      </trkpt>
      <trkpt lat="45.66566" lon="5.68794">
        <ele>215</ele>
        <time>2013-04-21T13:57:47Z</time>
      </trkpt>
      <trkpt lat="45.66463" lon="5.68718">
        <ele>215</ele>
        <time>2013-04-21T13:58:13Z</time>
      </trkpt>
      <trkpt lat="45.6638" lon="5.68716">
        <ele>216</ele>
        <time>2013-04-21T13:58:33Z</time>
      </trkpt>
      <trkpt lat="45.66181" lon="5.6891">
        <ele>215</ele>
        <time>2013-04-21T13:59:34Z</time>
      </trkpt>
      <trkpt lat="45.66133" lon="5.68632">
        <ele>216</ele>
        <time>2013-04-21T14:00:48Z</time>
      </trkpt>
      <trkpt lat="45.65188" lon="5.69011">
        <ele>214</ele>
        <time>2013-04-21T14:04:53Z</time>
      </trkpt>
      <trkpt lat="45.65141" lon="5.69075">
        <ele>215</ele>
        <time>2013-04-21T14:05:13Z</time>
      </trkpt>
      <trkpt lat="45.64912" lon="5.69144">
        <ele>215</ele>
        <time>2013-04-21T14:06:11Z</time>
      </trkpt>
      <trkpt lat="45.64739" lon="5.69296">
        <ele>215</ele>
        <time>2013-04-21T14:06:58Z</time>
      </trkpt>
      <trkpt lat="45.64589" lon="5.69274">
        <ele>216</ele>
        <time>2013-04-21T14:07:33Z</time>
      </trkpt>
      <trkpt lat="45.64473" lon="5.69322">
        <ele>216</ele>
        <time>2013-04-21T14:08:03Z</time>
      </trkpt>
      <trkpt lat="45.64405" lon="5.69259">
        <ele>215</ele>
        <time>2013-04-21T14:08:26Z</time>
      </trkpt>
      <trkpt lat="45.64341" lon="5.69145">
        <ele>215</ele>
        <time>2013-04-21T14:08:49Z</time>
      </trkpt>
      <trkpt lat="45.64158" lon="5.69026">
        <ele>222</ele>
        <time>2013-04-21T14:09:39Z</time>
      </trkpt>
      <trkpt lat="45.64047" lon="5.68912">
        <ele>219</ele>
        <time>2013-04-21T14:10:12Z</time>
      </trkpt>
      <trkpt lat="45.63927" lon="5.68732">
        <ele>217</ele>
        <time>2013-04-21T14:10:50Z</time>
      </trkpt>
      <trkpt lat="45.63853" lon="5.68565">
        <ele>217</ele>
        <time>2013-04-21T14:11:24Z</time>
      </trkpt>
      <trkpt lat="45.63828" lon="5.68364">
        <ele>216</ele>
        <time>2013-04-21T14:12:05Z</time>
      </trkpt>
      <trkpt lat="45.63846" lon="5.6822">
        <ele>216</ele>
        <time>2013-04-21T14:13:59Z</time>
      </trkpt>
      <trkpt lat="45.63842" lon="5.68182">
        <ele>216</ele>
        <time>2013-04-21T14:14:07Z</time>
      </trkpt>
      <trkpt lat="45.63711" lon="5.67707">
        <ele>214</ele>
        <time>2013-04-21T14:16:26Z</time>
      </trkpt>
      <trkpt lat="45.63691" lon="5.67666">
        <ele>214</ele>
        <time>2013-04-21T14:16:36Z</time>
      </trkpt>
      <trkpt lat="45.63666" lon="5.67659">
        <ele>214</ele>
        <time>2013-04-21T14:16:40Z</time>
      </trkpt>
      <trkpt lat="45.63646" lon="5.67573">
        <ele>215</ele>
        <time>2013-04-21T14:17:21Z</time>
      </trkpt>
      <trkpt lat="45.63681" lon="5.65988">
        <ele>212</ele>
        <time>2013-04-21T14:24:21Z</time>
      </trkpt>
      <trkpt lat="45.63656" lon="5.65864">
        <ele>212</ele>
        <time>2013-04-21T14:24:43Z</time>
      </trkpt>
      <trkpt lat="45.63452" lon="5.65611">
        <ele>213</ele>
        <time>2013-04-21T14:26:22Z</time>
      </trkpt>
      <trkpt lat="45.63623" lon="5.65359">
        <ele>213</ele>
        <time>2013-04-21T14:28:03Z</time>
      </trkpt>
      <trkpt lat="45.63714" lon="5.65334">
        <ele>213</ele>
        <time>2013-04-21T14:28:47Z</time>
      </trkpt>
      <trkpt lat="45.63736" lon="5.6526">
        <ele>212</ele>
        <time>2013-04-21T14:29:00Z</time>
      </trkpt>
      <trkpt lat="45.63672" lon="5.65062">
        <ele>213</ele>
        <time>2013-04-21T14:29:32Z</time>
      </trkpt>
      <trkpt lat="45.63416" lon="5.64698">
        <ele>213</ele>
        <time>2013-04-21T14:30:47Z</time>
      </trkpt>
      <trkpt lat="45.63395" lon="5.64561">
        <ele>219</ele>
        <time>2013-04-21T14:31:17Z</time>
      </trkpt>
      <trkpt lat="45.63478" lon="5.64202">
        <ele>225</ele>
        <time>2013-04-21T14:32:31Z</time>
      </trkpt>
      <trkpt lat="45.63572" lon="5.64105">
        <ele>224</ele>
        <time>2013-04-21T14:33:04Z</time>
      </trkpt>
      <trkpt lat="45.6378" lon="5.64149">
        <ele>222</ele>
        <time>2013-04-21T14:36:05Z</time>
      </trkpt>
      <trkpt lat="45.63913" lon="5.64239">
        <ele>214</ele>
        <time>2013-04-21T14:37:04Z</time>
      </trkpt>
      <trkpt lat="45.64037" lon="5.64335">
        <ele>222</ele>
        <time>2013-04-21T14:37:42Z</time>
      </trkpt>
      <trkpt lat="45.64051" lon="5.64408">
        <ele>223</ele>
        <time>2013-04-21T14:37:49Z</time>
      </trkpt>
      <trkpt lat="45.63989" lon="5.64791">
        <ele>219</ele>
        <time>2013-04-21T14:38:41Z</time>
      </trkpt>
      <trkpt lat="45.6399" lon="5.64553">
        <ele>219</ele>
        <time>2013-04-21T14:39:52Z</time>
      </trkpt>
      <trkpt lat="45.64025" lon="5.64364">
        <ele>222</ele>
        <time>2013-04-21T14:40:25Z</time>
      </trkpt>
      <trkpt lat="45.63985" lon="5.64307">
        <ele>217</ele>
        <time>2013-04-21T14:40:39Z</time>
      </trkpt>
      <trkpt lat="45.63996" lon="5.64273">
        <ele>216</ele>
        <time>2013-04-21T14:40:47Z</time>
      </trkpt>
      <trkpt lat="45.64044" lon="5.64281">
        <ele>220</ele>
        <time>2013-04-21T14:40:59Z</time>
      </trkpt>
      <trkpt lat="45.64077" lon="5.64122">
        <ele>217</ele>
        <time>2013-04-21T14:41:29Z</time>
      </trkpt>
      <trkpt lat="45.64078" lon="5.63614">
        <ele>218</ele>
        <time>2013-04-21T14:42:53Z</time>
      </trkpt>
      <trkpt lat="45.64046" lon="5.63395">
        <ele>218</ele>
        <time>2013-04-21T14:44:01Z</time>
      </trkpt>
      <trkpt lat="45.64088" lon="5.63081">
        <ele>230</ele>
        <time>2013-04-21T14:46:53Z</time>
      </trkpt>
      <trkpt lat="45.64155" lon="5.62671">
        <ele>230</ele>
        <time>2013-04-21T14:48:43Z</time>
      </trkpt>
      <trkpt lat="45.64145" lon="5.62579">
        <ele>228</ele>
        <time>2013-04-21T14:49:50Z</time>
      </trkpt>
      <trkpt lat="45.63991" lon="5.62356">
        <ele>225</ele>
        <time>2013-04-21T14:52:46Z</time>
      </trkpt>
      <trkpt lat="45.63686" lon="5.62244">
        <ele>225</ele>
        <time>2013-04-21T14:53:59Z</time>
      </trkpt>
      <trkpt lat="45.63702" lon="5.6221">
        <ele>224</ele>
        <time>2013-04-21T14:54:24Z</time>
      </trkpt>
      <trkpt lat="45.63776" lon="5.62155">
        <ele>219</ele>
        <time>2013-04-21T14:54:39Z</time>
      </trkpt>
      <trkpt lat="45.63783" lon="5.61825">
        <ele>220</ele>
        <time>2013-04-21T14:55:25Z</time>
      </trkpt>
      <trkpt lat="45.63827" lon="5.61618">
        <ele>214</ele>
        <time>2013-04-21T14:56:35Z</time>
      </trkpt>
      <trkpt lat="45.63943" lon="5.61358">
        <ele>209</ele>
        <time>2013-04-21T14:57:22Z</time>
      </trkpt>
      <trkpt lat="45.64126" lon="5.61144">
        <ele>209</ele>
        <time>2013-04-21T14:58:21Z</time>
      </trkpt>
      <trkpt lat="45.65024" lon="5.60574">
        <ele>211</ele>
        <time>2013-04-21T15:02:07Z</time>
      </trkpt>
      <trkpt lat="45.65117" lon="5.60472">
        <ele>209</ele>
        <time>2013-04-21T15:02:37Z</time>
      </trkpt>
      <trkpt lat="45.65358" lon="5.60274">
        <ele>210</ele>
        <time>2013-04-21T15:03:48Z</time>
      </trkpt>
      <trkpt lat="45.65475" lon="5.60577">
        <ele>210</ele>
        <time>2013-04-21T15:05:19Z</time>
      </trkpt>
      <trkpt lat="45.65621" lon="5.60464">
        <ele>208</ele>
        <time>2013-04-21T15:06:00Z</time>
      </trkpt>
      <trkpt lat="45.65934" lon="5.59982">
        <ele>208</ele>
        <time>2013-04-21T15:08:28Z</time>
      </trkpt>
      <trkpt lat="45.66058" lon="5.59477">
        <ele>207</ele>
        <time>2013-04-21T15:09:51Z</time>
      </trkpt>
      <trkpt lat="45.66164" lon="5.59237">
        <ele>206</ele>
        <time>2013-04-21T15:10:34Z</time>
      </trkpt>
      <trkpt lat="45.66273" lon="5.59101">
        <ele>208</ele>
        <time>2013-04-21T15:11:05Z</time>
      </trkpt>
      <trkpt lat="45.66591" lon="5.58865">
        <ele>208</ele>
        <time>2013-04-21T15:12:28Z</time>
      </trkpt>
      <trkpt lat="45.66763" lon="5.58639">
        <ele>207</ele>
        <time>2013-04-21T15:13:24Z</time>
      </trkpt>
      <trkpt lat="45.66904" lon="5.58261">
        <ele>209</ele>
        <time>2013-04-21T15:22:10Z</time>
      </trkpt>
      <trkpt lat="45.66975" lon="5.57861">
        <ele>207</ele>
        <time>2013-04-21T15:23:21Z</time>
      </trkpt>
      <trkpt lat="45.67093" lon="5.57486">
        <ele>208</ele>
        <time>2013-04-21T15:24:25Z</time>
      </trkpt>
      <trkpt lat="45.67174" lon="5.57526">
        <ele>217</ele>
        <time>2013-04-21T15:25:03Z</time>
      </trkpt>
      <trkpt lat="45.67175" lon="5.57565">
        <ele>218</ele>
        <time>2013-04-21T15:25:19Z</time>
      </trkpt>
      <trkpt lat="45.67202" lon="5.57585">
        <ele>220</ele>
        <time>2013-04-21T15:25:36Z</time>
      </trkpt>
      <trkpt lat="45.67235" lon="5.57569">
        <ele>221</ele>
        <time>2013-04-21T15:26:11Z</time>
      </trkpt>
      <trkpt lat="45.67319" lon="5.57634">
        <ele>222</ele>
        <time>2013-04-21T15:26:48Z</time>
      </trkpt>
      <trkpt lat="45.67394" lon="5.57424">
        <ele>225</ele>
        <time>2013-04-21T15:27:37Z</time>
      </trkpt>
      <trkpt lat="45.67384" lon="5.57322">
        <ele>224</ele>
        <time>2013-04-21T15:28:02Z</time>
      </trkpt>
      <trkpt lat="45.67429" lon="5.57231">
        <ele>223</ele>
        <time>2013-04-21T15:28:20Z</time>
      </trkpt>
      <trkpt lat="45.67687" lon="5.56942">
        <ele>213</ele>
        <time>2013-04-21T15:30:07Z</time>
      </trkpt>
      <trkpt lat="45.67927" lon="5.57027">
        <ele>216</ele>
        <time>2013-04-21T15:30:54Z</time>
      </trkpt>
      <trkpt lat="45.68115" lon="5.56935">
        <ele>211</ele>
        <time>2013-04-21T15:31:39Z</time>
      </trkpt>
      <trkpt lat="45.68189" lon="5.56828">
        <ele>209</ele>
        <time>2013-04-21T15:32:00Z</time>
      </trkpt>
      <trkpt lat="45.68353" lon="5.56719">
        <ele>208</ele>
        <time>2013-04-21T15:32:46Z</time>
      </trkpt>
      <trkpt lat="45.68352" lon="5.56691">
        <ele>208</ele>
        <time>2013-04-21T15:32:51Z</time>
      </trkpt>
      <trkpt lat="45.68429" lon="5.56306">
        <ele>207</ele>
        <time>2013-04-21T15:33:54Z</time>
      </trkpt>
      <trkpt lat="45.68688" lon="5.56016">
        <ele>205</ele>
        <time>2013-04-21T15:36:49Z</time>
      </trkpt>
      <trkpt lat="45.68988" lon="5.55868">
        <ele>205</ele>
        <time>2013-04-21T15:38:09Z</time>
      </trkpt>
      <trkpt lat="45.69328" lon="5.55846">
        <ele>205</ele>
        <time>2013-04-21T15:39:23Z</time>
      </trkpt>
      <trkpt lat="45.69517" lon="5.55662">
        <ele>206</ele>
        <time>2013-04-21T15:40:15Z</time>
      </trkpt>
      <trkpt lat="45.69684" lon="5.55645">
        <ele>206</ele>
        <time>2013-04-21T15:40:55Z</time>
      </trkpt>
      <trkpt lat="45.69716" lon="5.5562">
        <ele>206</ele>
        <time>2013-04-21T15:41:03Z</time>
      </trkpt>
      <trkpt lat="45.69829" lon="5.5534">
        <ele>205</ele>
        <time>2013-04-21T15:42:02Z</time>
      </trkpt>
      <trkpt lat="45.70515" lon="5.55593">
        <ele>204</ele>
        <time>2013-04-21T15:46:13Z</time>
      </trkpt>
      <trkpt lat="45.70812" lon="5.55537">
        <ele>204</ele>
        <time>2013-04-21T15:47:23Z</time>
      </trkpt>
      <trkpt lat="45.7092" lon="5.55453">
        <ele>205</ele>
        <time>2013-04-21T15:47:51Z</time>
      </trkpt>
      <trkpt lat="45.71208" lon="5.55104">
        <ele>206</ele>
        <time>2013-04-21T15:50:11Z</time>
      </trkpt>
    </trkseg>
  </trk>
</gpx>